createdAt,value
2023-01-29T00:04:06.336Z,0
2023-01-29T00:09:05.901Z,0
2023-01-29T00:14:05.706Z,0
2023-01-29T00:19:05.212Z,0
2023-01-29T00:24:03.159Z,0
2023-01-29T00:29:02.264Z,0
2023-01-29T00:34:02.960Z,0
2023-01-29T00:39:02.266Z,0
2023-01-29T00:44:01.493Z,0
2023-01-29T00:49:03.403Z,0
2023-01-29T00:54:00.843Z,0
2023-01-29T00:58:47.302Z,0
2023-01-29T01:00:08.870Z,0
2023-01-29T01:05:08.460Z,0
2023-01-29T01:10:08.518Z,0
2023-01-29T01:15:07.936Z,0
2023-01-29T01:20:07.204Z,0
2023-01-29T01:25:06.816Z,0
2023-01-29T01:30:07.407Z,0
2023-01-29T01:35:06.944Z,0
2023-01-29T01:40:06.856Z,0
2023-01-29T01:45:05.938Z,0
2023-01-29T01:50:06.023Z,0
2023-01-29T01:55:24.438Z,0
2023-01-29T01:59:43.683Z,0
2023-01-29T02:04:43.690Z,0
2023-01-29T02:09:44.868Z,0
2023-01-29T02:14:43.871Z,0
2023-01-29T02:19:42.909Z,0
2023-01-29T02:24:42.783Z,0
2023-01-29T02:29:41.963Z,0
2023-01-29T02:34:39.194Z,0
2023-01-29T02:39:38.914Z,0
2023-01-29T02:44:38.783Z,0
2023-01-29T02:49:38.452Z,0
2023-01-29T02:54:37.440Z,0
2023-01-29T02:59:05.988Z,0
2023-01-29T03:04:05.437Z,0
2023-01-29T03:09:05.015Z,0
2023-01-29T03:14:03.841Z,0
2023-01-29T03:19:04.186Z,0
2023-01-29T03:24:03.622Z,0
2023-01-29T03:29:04.346Z,0
2023-01-29T03:34:00.324Z,0
2023-01-29T03:39:00.174Z,0
2023-01-29T03:43:59.362Z,0
2023-01-29T03:48:59.457Z,0
2023-01-29T03:53:57.214Z,0
2023-01-29T03:58:57.299Z,0
2023-01-29T04:03:57.236Z,0
2023-01-29T04:08:58.071Z,0
2023-01-29T04:13:55.357Z,0
2023-01-29T04:18:54.417Z,0
2023-01-29T04:23:54.246Z,0
2023-01-29T04:28:54.005Z,0
2023-01-29T04:33:50.611Z,0
2023-01-29T04:38:50.773Z,0
2023-01-29T04:43:49.824Z,0
2023-01-29T04:48:49.474Z,0
2023-01-29T04:53:47.899Z,0
2023-01-29T04:58:48.086Z,0
2023-01-29T05:03:47.250Z,0
2023-01-29T05:08:46.325Z,0
2023-01-29T05:13:45.659Z,0
2023-01-29T05:18:45.965Z,0
2023-01-29T05:23:45.329Z,0
2023-01-29T05:28:46.663Z,0
2023-01-29T05:33:45.334Z,0
2023-01-29T05:38:44.876Z,0
2023-01-29T05:43:45.700Z,0
2023-01-29T05:48:42.242Z,0
2023-01-29T05:53:42.188Z,0
2023-01-29T05:58:41.134Z,0
2023-01-29T06:00:04.542Z,0
2023-01-29T06:05:01.077Z,0
2023-01-29T06:10:00.620Z,0
2023-01-29T06:15:00.714Z,0
2023-01-29T06:20:00.038Z,0
2023-01-29T06:24:59.893Z,0
2023-01-29T06:29:58.705Z,0
2023-01-29T06:34:59.053Z,0
2023-01-29T06:39:58.359Z,0
2023-01-29T06:44:57.136Z,0
2023-01-29T06:49:57.314Z,0
2023-01-29T06:54:56.754Z,0
2023-01-29T06:59:25.771Z,0
2023-01-29T07:04:26.503Z,0
2023-01-29T07:09:25.995Z,0
2023-01-29T07:14:27.422Z,0
2023-01-29T07:19:24.603Z,0
2023-01-29T07:24:24.641Z,0.01
2023-01-29T07:29:25.693Z,0.01
2023-01-29T07:34:22.929Z,0.01
2023-01-29T07:39:23.331Z,0.01
2023-01-29T07:44:23.284Z,0.02
2023-01-29T07:49:09.785Z,0.02
2023-01-29T07:54:09.915Z,0.02
2023-01-29T07:58:55.625Z,0.03
2023-01-29T08:03:55.463Z,0.03
2023-01-29T08:08:55.969Z,0.04
2023-01-29T08:13:54.648Z,0.04
2023-01-29T08:18:54.740Z,0.05
2023-01-29T08:23:55.082Z,0.05
2023-01-29T08:28:53.408Z,0.06
2023-01-29T08:33:56.390Z,0.07
2023-01-29T08:38:54.443Z,0.07
2023-01-29T08:43:51.858Z,0.08
2023-01-29T08:48:51.438Z,0.09
2023-01-29T08:53:53.105Z,0.09
2023-01-29T08:58:50.026Z,0.1
2023-01-29T09:03:49.321Z,0.11
2023-01-29T09:08:48.674Z,0.12
2023-01-29T09:13:48.980Z,0.13
2023-01-29T09:18:48.967Z,0.14
2023-01-29T09:23:50.215Z,0.15
2023-01-29T09:28:47.407Z,0.16
2023-01-29T09:33:46.992Z,0.17
2023-01-29T09:38:45.322Z,0.18
2023-01-29T09:43:45.454Z,0.19
2023-01-29T09:48:51.084Z,0.19
2023-01-29T09:53:43.259Z,0.2
2023-01-29T09:58:42.194Z,0.2
2023-01-29T10:00:04.816Z,0.19
2023-01-29T10:05:02.839Z,0.19
2023-01-29T10:10:02.928Z,0.19
2023-01-29T10:15:02.442Z,0.19
2023-01-29T10:20:01.871Z,0.2
2023-01-29T10:25:01.551Z,0.2
2023-01-29T10:29:58.651Z,0.19
2023-01-29T10:34:58.730Z,0.2
2023-01-29T10:39:59.320Z,0.2
2023-01-29T10:44:59.000Z,0.2
2023-01-29T10:49:57.803Z,0.19
2023-01-29T10:54:57.656Z,0.19
2023-01-29T10:59:17.303Z,0.2
2023-01-29T11:04:17.470Z,0.21
2023-01-29T11:09:18.190Z,0.22
2023-01-29T11:14:25.524Z,0.22
2023-01-29T11:19:25.655Z,0.23
2023-01-29T11:24:27.017Z,0.26
2023-01-29T11:29:24.658Z,0.25
2023-01-29T11:34:24.548Z,0.25
2023-01-29T11:39:25.355Z,0.26
2023-01-29T11:44:23.398Z,0.28
2023-01-29T11:49:24.065Z,0.29
2023-01-29T11:54:24.732Z,0.28
2023-01-29T11:59:07.104Z,0.28
2023-01-29T12:04:07.919Z,0.26
2023-01-29T12:09:07.681Z,0.32
2023-01-29T12:14:05.402Z,0.33
2023-01-29T12:19:04.904Z,0.31
2023-01-29T12:24:05.719Z,0.28
2023-01-29T12:29:05.455Z,0.3
2023-01-29T12:34:04.946Z,0.3
2023-01-29T12:39:04.785Z,0.3
2023-01-29T12:44:04.852Z,0.28
2023-01-29T12:49:05.169Z,0.28
2023-01-29T12:54:02.620Z,0.28
2023-01-29T12:59:01.985Z,0.26
2023-01-29T13:04:02.324Z,0.27
2023-01-29T13:09:02.230Z,0.27
2023-01-29T13:14:01.177Z,0.26
2023-01-29T13:19:00.017Z,0.24
2023-01-29T13:24:00.147Z,0.22
2023-01-29T13:28:59.558Z,0.22
2023-01-29T13:34:00.967Z,0.2
2023-01-29T13:38:56.993Z,0.19
2023-01-29T13:43:56.981Z,0.16
2023-01-29T13:48:56.647Z,0.15
2023-01-29T13:53:54.880Z,0.14
2023-01-29T13:58:53.543Z,0.15
2023-01-29T14:04:08.217Z,0.16
2023-01-29T14:08:53.067Z,0.15
2023-01-29T14:13:50.154Z,0.14
2023-01-29T14:18:50.878Z,0.15
2023-01-29T14:23:50.145Z,0.13
2023-01-29T14:28:51.051Z,0.12
2023-01-29T14:33:47.341Z,0.11
2023-01-29T14:38:47.296Z,0.1
2023-01-29T14:43:46.509Z,0.1
2023-01-29T14:48:46.350Z,0.09
2023-01-29T14:53:43.457Z,0.08
2023-01-29T14:58:43.027Z,0.07
2023-01-29T15:03:43.910Z,0.07
2023-01-29T15:08:43.198Z,0.06
2023-01-29T15:13:42.252Z,0.06
2023-01-29T15:18:42.059Z,0.05
2023-01-29T15:23:42.001Z,0.04
2023-01-29T15:28:41.447Z,0.04
2023-01-29T15:33:39.236Z,0.03
2023-01-29T15:38:39.423Z,0.03
2023-01-29T15:43:38.302Z,0.02
2023-01-29T15:48:36.946Z,0.02
2023-01-29T15:53:37.822Z,0.01
2023-01-29T15:58:35.619Z,0.01
2023-01-29T15:59:57.774Z,0.01
2023-01-29T16:04:56.656Z,0
2023-01-29T16:09:56.145Z,0
2023-01-29T16:14:56.163Z,0
2023-01-29T16:19:55.453Z,0
2023-01-29T16:24:56.628Z,0
2023-01-29T16:29:53.045Z,0
2023-01-29T16:34:53.583Z,0
2023-01-29T16:39:52.166Z,0
2023-01-29T16:44:52.136Z,0
2023-01-29T16:49:49.439Z,0
2023-01-29T16:54:49.483Z,0
2023-01-29T16:58:53.704Z,0
2023-01-29T17:03:54.489Z,0
2023-01-29T17:08:53.613Z,0
2023-01-29T17:13:53.299Z,0
2023-01-29T17:18:53.766Z,0
2023-01-29T17:23:50.420Z,0
2023-01-29T17:28:50.807Z,0
2023-01-29T17:33:50.217Z,0
2023-01-29T17:38:49.865Z,0
2023-01-29T17:43:48.876Z,0
2023-01-29T17:48:48.953Z,0
2023-01-29T17:53:49.782Z,0
2023-01-29T17:58:48.769Z,0
2023-01-29T18:03:46.243Z,0
2023-01-29T18:08:45.356Z,0
2023-01-29T18:13:45.407Z,0
2023-01-29T18:18:45.717Z,0
2023-01-29T18:23:44.742Z,0
2023-01-29T18:28:44.646Z,0
2023-01-29T18:33:44.096Z,0
2023-01-29T18:38:44.219Z,0
2023-01-29T18:43:44.908Z,0
2023-01-29T18:48:44.955Z,0
2023-01-29T18:53:41.959Z,0
2023-01-29T18:58:41.022Z,0
2023-01-29T19:00:17.433Z,0
2023-01-29T19:05:02.691Z,0
2023-01-29T19:10:01.517Z,0
2023-01-29T19:15:01.238Z,0
2023-01-29T19:20:01.746Z,0
2023-01-29T19:25:00.575Z,0
2023-01-29T19:29:59.500Z,0
2023-01-29T19:35:01.021Z,0
2023-01-29T19:39:57.013Z,0
2023-01-29T19:44:57.217Z,0
2023-01-29T19:49:56.246Z,0
2023-01-29T19:54:56.545Z,0
2023-01-29T19:59:16.919Z,0
2023-01-29T20:04:27.470Z,0
2023-01-29T20:09:26.829Z,0
2023-01-29T20:14:25.584Z,0
2023-01-29T20:19:25.446Z,0
2023-01-29T20:24:25.927Z,0
2023-01-29T20:29:25.019Z,0
2023-01-29T20:34:25.003Z,0
2023-01-29T20:39:25.490Z,0
2023-01-29T20:44:25.020Z,0
2023-01-29T20:49:23.899Z,0
2023-01-29T20:54:24.578Z,0
2023-01-29T20:59:05.108Z,0
2023-01-29T21:04:04.001Z,0
2023-01-29T21:09:03.549Z,0
2023-01-29T21:14:03.646Z,0
2023-01-29T21:19:04.059Z,0
2023-01-29T21:24:00.520Z,0
2023-01-29T21:29:00.392Z,0
2023-01-29T21:33:59.580Z,0
2023-01-29T21:38:59.293Z,0
2023-01-29T21:43:56.702Z,0
2023-01-29T21:48:57.254Z,0
2023-01-29T21:53:56.770Z,0
2023-01-29T21:58:57.484Z,0
2023-01-29T22:03:54.265Z,0
2023-01-29T22:08:54.620Z,0
2023-01-29T22:13:54.424Z,0
2023-01-29T22:18:53.062Z,0
2023-01-29T22:23:53.875Z,0
2023-01-29T22:28:53.196Z,0
2023-01-29T22:33:52.513Z,0
2023-01-29T22:38:51.960Z,0
2023-01-29T22:43:52.655Z,0
2023-01-29T22:48:51.585Z,0
2023-01-29T22:53:52.979Z,0
2023-01-29T22:58:48.661Z,0
2023-01-29T23:03:48.943Z,0
2023-01-29T23:08:47.898Z,0
2023-01-29T23:13:47.078Z,0
2023-01-29T23:18:46.169Z,0
2023-01-29T23:23:48.289Z,0
2023-01-29T23:28:46.417Z,0
2023-01-29T23:33:46.986Z,0
2023-01-29T23:38:44.324Z,0
2023-01-29T23:43:43.405Z,0
2023-01-29T23:48:42.666Z,0
2023-01-29T23:53:42.398Z,0
2023-01-29T23:58:39.604Z,0
